Terminal Aerodrome Forecast
Issued by NWS Twin Cities, MN

Home | Current Version | Previous Version | Text Only | Print | Product List | Glossary Off
Versions: 1 2 3 4 5 6 7 8 9 10 11 12 13 14 15 16 17 18 19

000
FTUS43 KMPX 221323 AAA
TAFSTC
TAF AMD
KSTC 221323Z 2213/2312 31016G20KT P6SM SCT025
     FM221400 31016G22KT P6SM BKN020
     FM221600 33017G25KT P6SM SCT020 SCT250
     FM230000 34008KT P6SM FEW250=

USA.gov is the U.S. government's official web portal to all federal, state and local government web resources and services.